createdAt,value
2023-05-19T00:00:25.047Z,9.79
2023-05-19T00:01:28.518Z,9.79
2023-05-19T00:02:33.974Z,9.80
2023-05-19T00:03:40.731Z,9.80
2023-05-19T00:04:42.797Z,9.79
2023-05-19T00:05:46.387Z,9.73
2023-05-19T00:06:51.632Z,9.71
2023-05-19T00:07:56.689Z,9.69
2023-05-19T00:09:01.754Z,9.67
2023-05-19T00:10:03.939Z,9.68
2023-05-19T00:11:06.530Z,9.69
2023-05-19T00:12:10.893Z,9.71
2023-05-19T00:13:13.085Z,9.72
2023-05-19T00:14:15.024Z,9.68
2023-05-19T00:15:17.223Z,9.63
2023-05-19T00:16:19.318Z,9.63
2023-05-19T00:17:21.486Z,9.61
2023-05-19T00:18:23.489Z,9.56
2023-05-19T00:19:25.739Z,9.56
2023-05-19T00:20:27.747Z,9.59
2023-05-19T00:21:30.121Z,9.62
2023-05-19T00:22:32.045Z,9.64
2023-05-19T00:23:34.004Z,9.67
2023-05-19T00:24:35.910Z,9.70
2023-05-19T00:25:37.910Z,9.73
2023-05-19T00:26:39.824Z,9.75
2023-05-19T00:27:41.750Z,9.75
2023-05-19T00:28:43.607Z,9.76
2023-05-19T00:29:45.440Z,9.78
2023-05-19T00:30:50.321Z,9.79
2023-05-19T00:31:52.348Z,9.81
2023-05-19T00:32:54.234Z,9.81
2023-05-19T00:33:56.267Z,9.82
2023-05-19T00:34:58.161Z,9.82
2023-05-19T00:36:03.384Z,9.82
2023-05-19T00:37:05.252Z,9.82
2023-05-19T00:38:07.201Z,9.82
2023-05-19T00:39:09.094Z,9.81
2023-05-19T00:40:11.106Z,9.81
2023-05-19T00:41:13.087Z,9.80
2023-05-19T00:42:15.128Z,9.78
2023-05-19T00:43:17.179Z,9.75
2023-05-19T00:44:19.050Z,9.73
2023-05-19T00:45:20.973Z,9.71
2023-05-19T00:46:23.412Z,9.69
2023-05-19T00:47:25.371Z,9.69
2023-05-19T00:48:27.965Z,9.69
2023-05-19T00:49:29.802Z,9.67
2023-05-19T00:50:32.212Z,9.65
2023-05-19T00:51:34.496Z,9.67
2023-05-19T00:52:36.437Z,9.69
2023-05-19T00:53:38.364Z,9.70
2023-05-19T00:54:40.277Z,9.72
2023-05-19T00:55:42.988Z,9.72
2023-05-19T00:56:44.946Z,9.69
2023-05-19T00:57:47.266Z,9.64
2023-05-19T00:58:51.130Z,9.60
2023-05-19T00:59:53.180Z,9.60
2023-05-19T01:00:56.364Z,9.60
2023-05-19T01:01:58.561Z,9.56
2023-05-19T01:03:00.781Z,9.59
2023-05-19T01:04:04.895Z,9.63
2023-05-19T01:05:07.434Z,9.66
2023-05-19T01:06:09.406Z,9.69
2023-05-19T01:07:12.809Z,9.71
2023-05-19T01:08:14.748Z,9.73
2023-05-19T01:09:17.679Z,9.73
2023-05-19T01:10:20.365Z,9.69
2023-05-19T01:11:22.491Z,9.65
2023-05-19T01:12:24.884Z,9.64
2023-05-19T01:13:27.817Z,9.65
2023-05-19T01:14:30.422Z,9.64
2023-05-19T01:15:40.418Z,9.66
2023-05-19T01:16:54.384Z,9.66
2023-05-19T01:18:08.739Z,9.63
2023-05-19T01:19:11.420Z,9.62
2023-05-19T01:20:17.383Z,9.61
2023-05-19T01:21:19.509Z,9.63
2023-05-19T01:22:23.243Z,9.61
2023-05-19T01:23:36.892Z,9.60
2023-05-19T01:24:48.248Z,9.57
2023-05-19T01:25:59.341Z,9.58
2023-05-19T01:27:01.342Z,9.63
2023-05-19T01:28:12.338Z,9.65
2023-05-19T01:29:25.453Z,9.67
2023-05-19T01:30:29.648Z,9.61
2023-05-19T01:31:31.865Z,9.59
2023-05-19T01:32:34.054Z,9.62
2023-05-19T01:33:36.640Z,9.64
2023-05-19T01:34:41.599Z,9.64
2023-05-19T01:35:44.141Z,9.64
2023-05-19T01:36:50.125Z,9.65
2023-05-19T01:37:53.330Z,9.62
2023-05-19T01:38:57.201Z,9.60
2023-05-19T01:39:59.321Z,9.63
2023-05-19T01:41:04.200Z,9.63
2023-05-19T01:42:07.044Z,9.66
2023-05-19T01:43:10.474Z,9.67
2023-05-19T01:44:12.486Z,9.67
2023-05-19T01:45:14.483Z,9.68
2023-05-19T01:46:16.843Z,9.67
2023-05-19T01:47:18.889Z,9.66
2023-05-19T01:48:21.456Z,9.64
2023-05-19T01:49:23.369Z,9.63
2023-05-19T01:50:25.414Z,9.60
2023-05-19T01:51:28.010Z,9.59
2023-05-19T01:52:29.844Z,9.59
2023-05-19T01:53:31.904Z,9.57
2023-05-19T01:54:34.126Z,9.51
2023-05-19T01:55:42.750Z,9.48
2023-05-19T01:56:58.408Z,9.48
2023-05-19T01:58:03.135Z,9.46
2023-05-19T01:59:14.973Z,9.46
2023-05-19T02:00:22.477Z,9.44
2023-05-19T02:01:43.299Z,9.44
2023-05-19T02:02:54.666Z,9.46
2023-05-19T02:03:56.529Z,9.46
2023-05-19T02:05:03.332Z,9.48
2023-05-19T02:06:14.458Z,9.49
2023-05-19T02:07:23.752Z,9.52
2023-05-19T02:08:44.795Z,9.51
2023-05-19T02:09:52.440Z,9.44
2023-05-19T02:11:17.278Z,9.26
2023-05-19T02:12:19.100Z,9.20
2023-05-19T02:13:24.209Z,9.26
2023-05-19T02:14:46.069Z,9.23
2023-05-19T02:15:49.101Z,9.25
2023-05-19T02:16:51.215Z,9.29
2023-05-19T02:17:54.784Z,9.32
2023-05-19T02:18:57.674Z,9.34
2023-05-19T02:19:59.971Z,9.37
2023-05-19T02:21:02.320Z,9.33
2023-05-19T02:22:04.368Z,9.35
2023-05-19T02:23:06.508Z,9.32
2023-05-19T02:24:08.527Z,9.30
2023-05-19T02:25:10.977Z,9.28
2023-05-19T02:26:12.916Z,9.26
2023-05-19T02:27:14.980Z,9.24
2023-05-19T02:28:16.929Z,9.19
2023-05-19T02:29:19.192Z,9.24
2023-05-19T02:30:21.263Z,9.26
2023-05-19T02:31:23.220Z,9.26
2023-05-19T02:32:25.192Z,9.28
2023-05-19T02:33:27.805Z,9.28
2023-05-19T02:34:29.810Z,9.29
2023-05-19T02:35:31.720Z,9.30
2023-05-19T02:36:35.260Z,9.31
2023-05-19T02:37:37.265Z,9.35
2023-05-19T02:38:39.125Z,9.37
2023-05-19T02:39:44.443Z,9.37
2023-05-19T02:40:46.347Z,9.36
2023-05-19T02:41:48.269Z,9.37
2023-05-19T02:42:50.227Z,9.39
2023-05-19T02:43:52.105Z,9.37
2023-05-19T02:44:54.858Z,9.37
2023-05-19T02:45:56.748Z,9.40
2023-05-19T02:46:58.747Z,9.44
2023-05-19T02:48:00.856Z,9.41
2023-05-19T02:49:02.782Z,9.35
2023-05-19T02:50:05.651Z,9.35
2023-05-19T02:51:07.661Z,9.35
2023-05-19T02:52:09.530Z,9.40
2023-05-19T02:53:11.525Z,9.44
2023-05-19T02:54:13.431Z,9.44
2023-05-19T02:55:17.521Z,9.38
2023-05-19T02:56:19.441Z,9.34
2023-05-19T02:57:22.437Z,9.35
2023-05-19T02:58:24.400Z,9.33
2023-05-19T02:59:26.379Z,9.34
2023-05-19T03:00:28.302Z,9.32
2023-05-19T03:01:30.150Z,9.31
2023-05-19T03:02:34.495Z,9.27
2023-05-19T03:03:36.774Z,9.21
2023-05-19T03:04:41.956Z,9.16
2023-05-19T03:05:43.956Z,9.19
2023-05-19T03:06:47.202Z,9.20
2023-05-19T03:07:49.094Z,9.23
2023-05-19T03:08:51.396Z,9.24
2023-05-19T03:09:53.381Z,9.29
2023-05-19T03:10:55.246Z,9.30
2023-05-19T03:11:57.134Z,9.30
2023-05-19T03:12:59.144Z,9.30
2023-05-19T03:14:01.174Z,9.33
2023-05-19T03:15:03.282Z,9.36
2023-05-19T03:16:05.284Z,9.33
2023-05-19T03:17:10.614Z,9.31
2023-05-19T03:18:12.981Z,9.32
2023-05-19T03:19:14.957Z,9.34
2023-05-19T03:20:16.843Z,9.35
2023-05-19T03:21:18.780Z,9.35
2023-05-19T03:22:21.629Z,9.36
2023-05-19T03:23:23.619Z,9.36
2023-05-19T03:24:25.708Z,9.37
2023-05-19T03:25:27.619Z,9.39
2023-05-19T03:26:33.151Z,9.41
2023-05-19T03:27:35.008Z,9.44
2023-05-19T03:28:36.918Z,9.47
2023-05-19T03:29:38.906Z,9.47
2023-05-19T03:30:41.075Z,9.49
2023-05-19T03:31:43.151Z,9.44
2023-05-19T03:32:45.119Z,9.45
2023-05-19T03:33:47.149Z,9.47
2023-05-19T03:34:49.092Z,9.47
2023-05-19T03:35:51.075Z,9.49
2023-05-19T03:36:52.976Z,9.49
2023-05-19T03:37:54.942Z,9.49
2023-05-19T03:38:56.880Z,9.46
2023-05-19T03:39:59.459Z,9.43
2023-05-19T03:41:01.400Z,9.43
2023-05-19T03:42:03.287Z,9.37
2023-05-19T03:43:05.212Z,9.34
2023-05-19T03:44:07.194Z,9.32
2023-05-19T03:45:09.298Z,9.31
2023-05-19T03:46:11.296Z,9.31
2023-05-19T03:47:13.235Z,9.33
2023-05-19T03:48:17.108Z,9.33
2023-05-19T03:49:20.328Z,9.36
2023-05-19T03:50:23.083Z,9.37
2023-05-19T03:51:25.052Z,9.38
2023-05-19T03:52:27.175Z,9.38
2023-05-19T03:53:30.702Z,9.38
2023-05-19T03:54:33.100Z,9.40
2023-05-19T03:55:35.025Z,9.42
2023-05-19T03:56:39.364Z,9.45
2023-05-19T03:57:44.735Z,9.44
2023-05-19T03:58:47.467Z,9.39
2023-05-19T03:59:49.508Z,9.39
2023-05-19T04:00:51.494Z,9.44
2023-05-19T04:01:53.550Z,9.41
2023-05-19T04:02:55.539Z,9.44
2023-05-19T04:03:57.520Z,9.47
2023-05-19T04:04:59.467Z,9.46
2023-05-19T04:06:01.401Z,9.45
2023-05-19T04:07:03.453Z,9.46
2023-05-19T04:08:05.430Z,9.48
2023-05-19T04:09:16.428Z,9.48
2023-05-19T04:10:19.442Z,9.51
2023-05-19T04:11:22.180Z,9.52
2023-05-19T04:12:24.449Z,9.54
2023-05-19T04:13:26.440Z,9.56
2023-05-19T04:14:28.360Z,9.58
2023-05-19T04:15:30.300Z,9.59
2023-05-19T04:16:32.301Z,9.60
2023-05-19T04:17:34.388Z,9.58
2023-05-19T04:18:36.278Z,9.52
2023-05-19T04:19:38.208Z,9.52
2023-05-19T04:20:40.087Z,9.53
2023-05-19T04:21:41.930Z,9.49
2023-05-19T04:22:43.969Z,9.45
2023-05-19T04:23:45.916Z,9.46
2023-05-19T04:24:47.947Z,9.44
2023-05-19T04:25:50.025Z,9.44
2023-05-19T04:26:52.473Z,9.39
2023-05-19T04:27:58.004Z,9.36
2023-05-19T04:28:59.902Z,9.38
2023-05-19T04:30:01.789Z,9.44
2023-05-19T04:31:03.790Z,9.47
2023-05-19T04:32:08.417Z,9.49
2023-05-19T04:33:10.500Z,9.51
2023-05-19T04:34:12.565Z,9.54
2023-05-19T04:35:15.742Z,9.56
2023-05-19T04:36:21.929Z,9.57
2023-05-19T04:37:24.586Z,9.55
2023-05-19T04:38:26.524Z,9.56
2023-05-19T04:39:28.500Z,9.54
2023-05-19T04:40:31.745Z,9.56
2023-05-19T04:41:36.769Z,9.47
2023-05-19T04:42:41.682Z,9.34
2023-05-19T04:43:44.970Z,9.29
2023-05-19T04:44:49.742Z,9.26
2023-05-19T04:45:51.756Z,9.23
2023-05-19T04:46:54.649Z,9.22
2023-05-19T04:47:58.441Z,9.18
2023-05-19T04:49:01.578Z,9.08
2023-05-19T04:50:04.550Z,9.04
2023-05-19T04:51:07.814Z,9.06
2023-05-19T04:52:13.180Z,9.01
2023-05-19T04:53:15.832Z,8.95
2023-05-19T04:54:17.794Z,8.94
2023-05-19T04:55:19.915Z,8.95
2023-05-19T04:56:22.535Z,9.01
2023-05-19T04:57:24.400Z,9.08
2023-05-19T04:58:26.673Z,9.09
2023-05-19T04:59:28.685Z,9.11
2023-05-19T05:00:31.101Z,9.13
2023-05-19T05:01:34.259Z,9.15
2023-05-19T05:02:37.720Z,9.19
2023-05-19T05:03:39.928Z,9.23
2023-05-19T05:04:44.333Z,9.22
2023-05-19T05:05:46.348Z,9.25
2023-05-19T05:06:49.040Z,9.29
2023-05-19T05:07:51.634Z,9.28
2023-05-19T05:08:53.616Z,9.30
2023-05-19T05:09:55.693Z,9.31
2023-05-19T05:10:57.953Z,9.31
2023-05-19T05:12:00.069Z,9.33
2023-05-19T05:13:02.249Z,9.36
2023-05-19T05:14:04.293Z,9.38
2023-05-19T05:15:07.328Z,9.39
2023-05-19T05:16:09.682Z,9.39
2023-05-19T05:17:13.061Z,9.41
2023-05-19T05:18:15.611Z,9.42
2023-05-19T05:19:17.715Z,9.41
2023-05-19T05:20:20.143Z,9.39
2023-05-19T05:21:23.434Z,9.37
2023-05-19T05:22:25.467Z,9.35
2023-05-19T05:23:27.623Z,9.35
2023-05-19T05:24:29.639Z,9.36
2023-05-19T05:25:32.136Z,9.35
2023-05-19T05:26:35.772Z,9.37
2023-05-19T05:27:37.763Z,9.38
2023-05-19T05:28:39.621Z,9.40
2023-05-19T05:29:41.478Z,9.43
2023-05-19T05:30:44.095Z,9.45
2023-05-19T05:31:47.417Z,9.45
2023-05-19T05:32:49.429Z,9.46
2023-05-19T05:33:51.555Z,9.47
2023-05-19T05:34:53.561Z,9.48
2023-05-19T05:35:55.505Z,9.50
2023-05-19T05:36:57.356Z,9.53
2023-05-19T05:37:59.340Z,9.54
2023-05-19T05:39:03.401Z,9.57
2023-05-19T05:40:07.316Z,9.61
2023-05-19T05:41:09.316Z,9.65
2023-05-19T05:42:11.339Z,9.69
2023-05-19T05:43:13.265Z,9.73
2023-05-19T05:44:15.135Z,9.75
2023-05-19T05:45:17.116Z,9.77
2023-05-19T05:46:19.199Z,9.81
2023-05-19T05:47:21.233Z,9.85
2023-05-19T05:48:23.694Z,9.86
2023-05-19T05:49:25.788Z,9.91
2023-05-19T05:50:27.837Z,9.93
2023-05-19T05:51:30.033Z,9.95
2023-05-19T05:52:32.769Z,9.97
2023-05-19T05:53:37.410Z,9.98
2023-05-19T05:54:39.487Z,10.01
2023-05-19T05:55:41.742Z,10.01
2023-05-19T05:56:43.729Z,10.03
2023-05-19T05:57:45.689Z,10.07
2023-05-19T05:58:47.790Z,10.09
2023-05-19T05:59:50.979Z,10.12
2023-05-19T06:00:53.747Z,10.14
2023-05-19T06:01:55.723Z,10.14
2023-05-19T06:02:59.634Z,10.18
2023-05-19T06:04:02.218Z,10.19
2023-05-19T06:05:04.283Z,10.20
2023-05-19T06:06:06.618Z,10.22
2023-05-19T06:07:08.705Z,10.25
2023-05-19T06:08:10.671Z,10.25
2023-05-19T06:09:12.761Z,10.28
2023-05-19T06:10:15.275Z,10.32
2023-05-19T06:11:17.270Z,10.35
2023-05-19T06:12:19.311Z,10.39
2023-05-19T06:13:24.281Z,10.41
2023-05-19T06:14:26.313Z,10.43
2023-05-19T06:15:28.248Z,10.46
2023-05-19T06:16:30.237Z,10.49
2023-05-19T06:17:32.335Z,10.51
2023-05-19T06:18:34.268Z,10.53
2023-05-19T06:19:36.128Z,10.52
2023-05-19T06:20:37.981Z,10.53
2023-05-19T06:21:39.895Z,10.52
2023-05-19T06:22:41.844Z,10.57
2023-05-19T06:23:43.945Z,10.58
2023-05-19T06:24:45.937Z,10.60
2023-05-19T06:25:47.929Z,10.60
2023-05-19T06:26:49.900Z,10.65
2023-05-19T06:27:51.885Z,10.68
2023-05-19T06:28:53.814Z,10.70
2023-05-19T06:29:55.702Z,10.73
2023-05-19T06:30:57.778Z,10.76
2023-05-19T06:31:59.754Z,10.77
2023-05-19T06:33:01.896Z,10.79
2023-05-19T06:34:03.883Z,10.82
2023-05-19T06:35:05.960Z,10.82
2023-05-19T06:36:10.250Z,10.85
2023-05-19T06:37:12.233Z,10.88
2023-05-19T06:38:14.114Z,10.90
2023-05-19T06:39:16.155Z,10.89
2023-05-19T06:40:18.104Z,10.89
2023-05-19T06:41:19.979Z,10.94
2023-05-19T06:42:25.712Z,10.98
2023-05-19T06:43:27.664Z,11.03
2023-05-19T06:44:29.674Z,11.05
2023-05-19T06:45:31.590Z,11.07
2023-05-19T06:46:33.621Z,11.11
2023-05-19T06:47:35.849Z,11.15
2023-05-19T06:48:37.809Z,11.17
2023-05-19T06:49:39.859Z,11.18
2023-05-19T06:50:41.743Z,11.20
2023-05-19T06:51:43.894Z,11.24
2023-05-19T06:52:47.382Z,11.26
2023-05-19T06:53:49.549Z,11.28
2023-05-19T06:54:51.614Z,11.33
2023-05-19T06:55:58.690Z,11.37
2023-05-19T06:57:01.489Z,11.37
2023-05-19T06:58:03.406Z,11.38
2023-05-19T06:59:05.370Z,11.38
2023-05-19T07:00:10.713Z,11.39
2023-05-19T07:01:12.603Z,11.40
2023-05-19T07:02:14.686Z,11.40
2023-05-19T07:03:16.761Z,11.39
2023-05-19T07:04:18.861Z,11.44
2023-05-19T07:05:21.019Z,11.45
2023-05-19T07:06:23.212Z,11.50
2023-05-19T07:07:25.168Z,11.52
2023-05-19T07:08:28.251Z,11.56
2023-05-19T07:09:30.125Z,11.59
2023-05-19T07:10:32.263Z,11.63
2023-05-19T07:11:34.264Z,11.64
2023-05-19T07:12:36.283Z,11.63
2023-05-19T07:13:38.273Z,11.65
2023-05-19T07:14:40.336Z,11.68
2023-05-19T07:15:42.274Z,11.70
2023-05-19T07:16:44.304Z,11.73
2023-05-19T07:17:46.352Z,11.74
2023-05-19T07:18:48.302Z,11.78
2023-05-19T07:19:50.220Z,11.81
2023-05-19T07:20:53.192Z,11.80
2023-05-19T07:21:55.916Z,11.81
2023-05-19T07:22:58.014Z,11.82
2023-05-19T07:23:59.997Z,11.90
2023-05-19T07:25:02.030Z,11.92
2023-05-19T07:26:04.130Z,11.95
2023-05-19T07:27:06.241Z,11.93
2023-05-19T07:28:08.195Z,11.97
2023-05-19T07:29:10.038Z,12.00
2023-05-19T07:30:12.266Z,12.05
2023-05-19T07:31:14.250Z,12.08
2023-05-19T07:32:16.315Z,12.10
2023-05-19T07:33:18.344Z,12.12
2023-05-19T07:34:21.215Z,12.16
2023-05-19T07:35:23.240Z,12.18
2023-05-19T07:36:25.172Z,12.17
2023-05-19T07:37:27.100Z,12.21
2023-05-19T07:38:29.182Z,12.26
2023-05-19T07:39:32.654Z,12.28
2023-05-19T07:40:34.689Z,12.31
2023-05-19T07:41:36.753Z,12.33
2023-05-19T07:42:38.637Z,12.38
2023-05-19T07:43:40.492Z,12.40
2023-05-19T07:44:42.483Z,12.46
2023-05-19T07:45:44.459Z,12.43
2023-05-19T07:46:46.434Z,12.43
2023-05-19T07:47:48.387Z,12.44
2023-05-19T07:48:50.369Z,12.48
2023-05-19T07:49:52.333Z,12.49
2023-05-19T07:50:54.423Z,12.52
2023-05-19T07:51:56.372Z,12.54
2023-05-19T07:52:58.326Z,12.53
2023-05-19T07:54:00.190Z,12.52
2023-05-19T07:55:02.116Z,12.54
2023-05-19T07:56:04.884Z,12.59
2023-05-19T07:57:06.847Z,12.63
2023-05-19T07:58:08.708Z,12.64
2023-05-19T07:59:10.824Z,12.68
2023-05-19T08:00:13.869Z,12.73
2023-05-19T08:01:15.850Z,12.75
2023-05-19T08:02:18.267Z,12.77
2023-05-19T08:03:21.367Z,12.80
2023-05-19T08:04:23.481Z,12.81
2023-05-19T08:05:26.351Z,12.85
2023-05-19T08:06:30.202Z,12.89
2023-05-19T08:07:32.169Z,12.88
2023-05-19T08:08:34.722Z,12.93
2023-05-19T08:09:36.790Z,12.94
2023-05-19T08:10:38.815Z,13.00
2023-05-19T08:11:40.925Z,13.02
2023-05-19T08:12:42.899Z,13.06
2023-05-19T08:13:47.931Z,13.09
2023-05-19T08:14:49.823Z,13.11
2023-05-19T08:15:51.784Z,13.14
2023-05-19T08:16:53.766Z,13.18
2023-05-19T08:17:56.399Z,13.19
2023-05-19T08:18:58.400Z,13.19
2023-05-19T08:20:00.746Z,13.21
2023-05-19T08:21:02.869Z,13.24
2023-05-19T08:22:04.901Z,13.29
2023-05-19T08:23:07.056Z,13.31
2023-05-19T08:24:09.367Z,13.36
2023-05-19T08:25:12.062Z,13.38
2023-05-19T08:26:14.028Z,13.40
2023-05-19T08:27:17.012Z,13.44
2023-05-19T08:28:18.899Z,13.47
2023-05-19T08:29:20.914Z,13.55
2023-05-19T08:30:22.826Z,13.63
2023-05-19T08:31:25.594Z,13.69
2023-05-19T08:32:27.539Z,13.71
2023-05-19T08:33:29.527Z,13.76
2023-05-19T08:34:32.804Z,13.78
2023-05-19T08:35:34.903Z,13.84
2023-05-19T08:36:36.806Z,13.88
2023-05-19T08:37:39.377Z,13.91
2023-05-19T08:38:41.300Z,13.93
2023-05-19T08:39:43.297Z,13.97
2023-05-19T08:40:47.026Z,13.99
2023-05-19T08:41:48.954Z,14.04
2023-05-19T08:42:50.883Z,14.05
2023-05-19T08:43:52.877Z,14.08
2023-05-19T08:44:54.889Z,14.15
2023-05-19T08:45:56.836Z,14.13
2023-05-19T08:47:01.171Z,14.14
2023-05-19T08:48:03.549Z,14.18
2023-05-19T08:49:09.749Z,14.21
2023-05-19T08:50:12.201Z,14.25
2023-05-19T08:51:32.611Z,14.29
2023-05-19T08:53:01.871Z,14.36
2023-05-19T08:54:15.051Z,14.40
2023-05-19T08:55:27.947Z,14.42
2023-05-19T08:56:30.517Z,14.45
2023-05-19T08:57:33.189Z,14.48
2023-05-19T08:58:35.232Z,14.59
2023-05-19T08:59:37.937Z,14.64
2023-05-19T09:00:39.947Z,14.66
2023-05-19T09:01:43.405Z,14.67
2023-05-19T09:02:55.219Z,14.71
2023-05-19T09:04:09.225Z,14.76
2023-05-19T09:05:11.391Z,14.82
2023-05-19T09:06:13.554Z,14.88
2023-05-19T09:07:15.942Z,14.94
2023-05-19T09:08:18.687Z,15.01
2023-05-19T09:09:20.621Z,15.05
2023-05-19T09:10:22.575Z,15.08
2023-05-19T09:11:24.507Z,15.14
2023-05-19T09:12:26.518Z,15.20
2023-05-19T09:13:28.554Z,15.26
2023-05-19T09:14:31.121Z,15.30
2023-05-19T09:15:34.487Z,15.36
2023-05-19T09:16:37.092Z,15.43
2023-05-19T09:17:40.032Z,15.50
2023-05-19T09:18:53.802Z,15.57
2023-05-19T09:19:56.293Z,15.63
2023-05-19T09:21:05.294Z,15.70
2023-05-19T09:22:07.509Z,15.72
2023-05-19T09:23:18.563Z,15.77
2023-05-19T09:24:20.935Z,15.84
2023-05-19T09:25:23.558Z,15.88
2023-05-19T09:26:25.668Z,15.91
2023-05-19T09:27:34.094Z,15.95
2023-05-19T09:28:36.758Z,16.07
2023-05-19T09:29:38.777Z,16.12
2023-05-19T09:30:40.767Z,16.15
2023-05-19T09:31:50.871Z,16.17
2023-05-19T09:32:52.965Z,16.25
2023-05-19T09:33:54.882Z,16.30
2023-05-19T09:34:57.397Z,16.34
2023-05-19T09:35:59.448Z,16.38
2023-05-19T09:37:01.457Z,16.40
2023-05-19T09:38:03.660Z,16.49
2023-05-19T09:39:13.407Z,16.54
2023-05-19T09:40:15.995Z,16.63
2023-05-19T09:41:18.038Z,16.67
2023-05-19T09:42:30.822Z,16.76
2023-05-19T09:43:34.256Z,16.83
2023-05-19T09:44:36.322Z,16.86
2023-05-19T09:45:38.210Z,16.90
2023-05-19T09:46:47.811Z,16.96
2023-05-19T09:47:49.717Z,17.01
2023-05-19T09:48:51.887Z,17.06
2023-05-19T09:49:54.142Z,17.11
2023-05-19T09:50:57.004Z,17.14
2023-05-19T09:52:00.057Z,17.19
2023-05-19T09:53:02.490Z,17.26
2023-05-19T09:54:04.946Z,17.35
2023-05-19T09:55:10.408Z,17.40
2023-05-19T09:56:15.425Z,17.45
2023-05-19T09:57:18.042Z,17.49
2023-05-19T09:58:20.928Z,17.56
2023-05-19T09:59:24.835Z,17.65
2023-05-19T10:00:27.646Z,17.72
2023-05-19T10:01:31.714Z,17.79
2023-05-19T10:02:34.075Z,17.87
2023-05-19T10:03:37.016Z,17.94
2023-05-19T10:04:39.017Z,17.99
2023-05-19T10:05:42.514Z,18.07
2023-05-19T10:06:44.558Z,18.13
2023-05-19T10:07:48.911Z,18.17
2023-05-19T10:08:52.656Z,18.27
2023-05-19T10:09:56.539Z,18.33
2023-05-19T10:10:59.578Z,18.39
2023-05-19T10:12:02.848Z,18.49
2023-05-19T10:13:05.670Z,18.57
2023-05-19T10:14:09.290Z,18.64
2023-05-19T10:15:12.357Z,18.72
2023-05-19T10:16:17.092Z,18.76
2023-05-19T10:17:19.030Z,18.83
2023-05-19T10:18:21.400Z,18.91
2023-05-19T10:19:24.880Z,18.99
2023-05-19T10:20:27.309Z,19.08
2023-05-19T10:21:29.266Z,19.15
2023-05-19T10:22:31.257Z,19.23
2023-05-19T10:23:33.441Z,19.32
2023-05-19T10:24:35.339Z,19.41
2023-05-19T10:25:38.554Z,19.42
2023-05-19T10:26:43.192Z,19.55
2023-05-19T10:27:50.590Z,19.64
2023-05-19T10:28:53.056Z,19.74
2023-05-19T10:29:57.859Z,19.83
2023-05-19T10:31:02.035Z,19.91
2023-05-19T10:32:08.666Z,20.01
2023-05-19T10:33:12.465Z,20.09
2023-05-19T10:34:22.422Z,20.17
2023-05-19T10:35:50.345Z,20.29
2023-05-19T10:37:03.970Z,20.31
2023-05-19T10:38:05.873Z,20.24
2023-05-19T10:39:28.155Z,20.33
2023-05-19T10:40:33.093Z,20.42
2023-05-19T10:41:37.657Z,20.55
2023-05-19T10:42:54.211Z,20.70
2023-05-19T10:44:10.355Z,20.85
2023-05-19T10:45:15.211Z,20.95
2023-05-19T10:46:17.277Z,21.04
2023-05-19T10:47:26.032Z,21.15
2023-05-19T10:48:33.547Z,21.32
2023-05-19T10:49:37.107Z,21.48
2023-05-19T10:50:39.044Z,21.56
2023-05-19T10:51:45.734Z,21.70
2023-05-19T10:52:54.193Z,21.80
2023-05-19T10:53:56.127Z,21.94
2023-05-19T10:54:58.697Z,22.07
2023-05-19T10:56:05.243Z,22.11
2023-05-19T10:57:08.521Z,21.96
2023-05-19T10:58:11.620Z,21.98
2023-05-19T10:59:32.977Z,22.14
2023-05-19T11:00:35.253Z,22.10
2023-05-19T11:01:38.649Z,22.00
2023-05-19T11:02:44.504Z,21.85
2023-05-19T11:03:50.455Z,21.56
2023-05-19T11:04:52.603Z,21.52
2023-05-19T11:06:14.406Z,21.52
2023-05-19T11:07:18.264Z,21.76
2023-05-19T11:08:32.587Z,22.01
2023-05-19T11:09:40.801Z,22.02
2023-05-19T11:10:46.522Z,21.80
2023-05-19T11:11:50.188Z,21.62
2023-05-19T11:12:52.416Z,21.51
2023-05-19T11:13:57.925Z,21.49
2023-05-19T11:14:59.900Z,21.62
2023-05-19T11:16:07.487Z,21.87
2023-05-19T11:17:14.169Z,22.16
2023-05-19T11:18:16.737Z,22.32
2023-05-19T11:19:28.647Z,22.43
2023-05-19T11:20:35.299Z,22.39
2023-05-19T11:21:49.427Z,22.29
2023-05-19T11:23:11.099Z,22.15
2023-05-19T11:24:32.902Z,21.95
2023-05-19T11:25:45.079Z,21.97
2023-05-19T11:26:47.816Z,21.77
2023-05-19T11:27:51.634Z,21.79
2023-05-19T11:28:54.055Z,22.01
2023-05-19T11:29:57.338Z,22.36
2023-05-19T11:31:00.336Z,22.69
2023-05-19T11:32:02.267Z,22.93
2023-05-19T11:33:04.941Z,22.83
2023-05-19T11:34:07.720Z,22.66
2023-05-19T11:35:10.281Z,22.52
2023-05-19T11:36:12.875Z,22.63
2023-05-19T11:37:14.817Z,22.84
2023-05-19T11:38:20.380Z,22.96
2023-05-19T11:39:22.439Z,23.13
2023-05-19T11:40:24.373Z,23.32
2023-05-19T11:41:28.757Z,23.54
2023-05-19T11:42:32.157Z,23.50
2023-05-19T11:43:34.190Z,23.34
2023-05-19T11:44:36.268Z,23.18
2023-05-19T11:45:38.292Z,23.00
2023-05-19T11:46:40.270Z,22.88
2023-05-19T11:48:00.885Z,22.75
2023-05-19T11:49:05.096Z,22.54
2023-05-19T11:50:07.343Z,22.47
2023-05-19T11:51:09.331Z,22.37
2023-05-19T11:52:11.494Z,22.27
2023-05-19T11:53:14.255Z,22.20
2023-05-19T11:54:17.132Z,22.14
2023-05-19T11:55:19.660Z,22.11
2023-05-19T11:56:21.881Z,22.14
2023-05-19T11:57:23.768Z,22.45
2023-05-19T11:58:28.087Z,22.65
2023-05-19T11:59:35.766Z,22.81
2023-05-19T12:00:40.241Z,22.70
2023-05-19T12:01:42.665Z,22.55
2023-05-19T12:02:44.587Z,22.39
2023-05-19T12:03:46.779Z,22.28
2023-05-19T12:04:52.521Z,22.21
2023-05-19T12:05:54.835Z,22.11
2023-05-19T12:06:56.703Z,21.85
2023-05-19T12:08:00.177Z,21.74
2023-05-19T12:09:02.074Z,21.64
2023-05-19T12:10:04.100Z,21.58
2023-05-19T12:11:06.892Z,21.45
2023-05-19T12:12:08.871Z,21.37
2023-05-19T12:13:11.231Z,21.34
2023-05-19T12:14:13.420Z,21.29
2023-05-19T12:15:17.351Z,21.10
2023-05-19T12:16:22.406Z,20.97
2023-05-19T12:17:24.510Z,20.93
2023-05-19T12:18:28.475Z,20.93
2023-05-19T12:19:31.054Z,20.92
2023-05-19T12:20:33.158Z,20.96
2023-05-19T12:21:35.478Z,20.97
2023-05-19T12:22:37.462Z,21.01
2023-05-19T12:23:40.319Z,21.08
2023-05-19T12:24:43.304Z,21.18
2023-05-19T12:25:45.673Z,21.18
2023-05-19T12:26:47.586Z,21.20
2023-05-19T12:27:49.993Z,21.18
2023-05-19T12:28:53.070Z,21.16
2023-05-19T12:29:56.096Z,21.08
2023-05-19T12:30:58.700Z,20.95
2023-05-19T12:32:01.551Z,20.83
2023-05-19T12:33:03.759Z,20.76
2023-05-19T12:34:05.793Z,20.74
2023-05-19T12:35:07.921Z,20.73
2023-05-19T12:36:10.409Z,20.71
2023-05-19T12:37:12.352Z,20.73
2023-05-19T12:38:14.939Z,20.62
2023-05-19T12:39:18.436Z,20.53
2023-05-19T12:40:21.523Z,20.51
2023-05-19T12:41:24.922Z,20.47
2023-05-19T12:42:31.654Z,20.44
2023-05-19T12:43:33.751Z,20.42
2023-05-19T12:44:55.140Z,20.41
2023-05-19T12:45:57.062Z,20.32
2023-05-19T12:46:59.987Z,20.25
2023-05-19T12:48:23.021Z,20.21
2023-05-19T12:49:25.082Z,20.12
2023-05-19T12:50:31.378Z,20.13
2023-05-19T12:51:33.559Z,20.17
2023-05-19T12:52:45.940Z,20.19
2023-05-19T12:53:48.133Z,20.22
2023-05-19T12:54:50.618Z,20.17
2023-05-19T12:55:53.216Z,20.16
2023-05-19T12:56:58.014Z,20.10
2023-05-19T12:57:59.890Z,20.06
2023-05-19T12:59:02.469Z,20.04
2023-05-19T13:00:07.282Z,20.01
2023-05-19T13:01:16.604Z,19.88
2023-05-19T13:02:19.833Z,19.80
2023-05-19T13:03:22.526Z,19.73
2023-05-19T13:04:25.287Z,19.74
2023-05-19T13:05:28.662Z,19.71
2023-05-19T13:06:30.560Z,19.70
2023-05-19T13:07:32.489Z,19.71
2023-05-19T13:08:34.482Z,19.66
2023-05-19T13:09:36.992Z,19.64
2023-05-19T13:10:39.930Z,19.63
2023-05-19T13:11:43.840Z,19.57
2023-05-19T13:12:45.727Z,19.54
2023-05-19T13:13:47.633Z,19.53
2023-05-19T13:14:49.541Z,19.56
2023-05-19T13:15:51.449Z,19.57
2023-05-19T13:16:53.518Z,19.59
2023-05-19T13:17:55.539Z,19.65
2023-05-19T13:18:57.558Z,19.65
2023-05-19T13:19:59.552Z,19.64
2023-05-19T13:21:01.685Z,19.64
2023-05-19T13:22:03.834Z,19.66
2023-05-19T13:23:06.327Z,19.67
2023-05-19T13:24:08.408Z,19.62
2023-05-19T13:25:10.575Z,19.52
2023-05-19T13:26:13.615Z,19.45
2023-05-19T13:27:15.595Z,19.40
2023-05-19T13:28:17.451Z,19.43
2023-05-19T13:29:19.298Z,19.45
2023-05-19T13:30:22.165Z,19.45
2023-05-19T13:31:24.156Z,19.47
2023-05-19T13:32:26.116Z,19.48
2023-05-19T13:33:28.025Z,19.47
2023-05-19T13:34:29.917Z,19.45
2023-05-19T13:35:37.600Z,19.43
2023-05-19T13:36:40.243Z,19.41
2023-05-19T13:37:42.742Z,19.45
2023-05-19T13:38:44.795Z,19.42
2023-05-19T13:39:46.737Z,19.37
2023-05-19T13:40:48.633Z,19.37
2023-05-19T13:41:50.874Z,19.34
2023-05-19T13:42:52.826Z,19.33
2023-05-19T13:43:54.781Z,19.31
2023-05-19T13:44:56.861Z,19.30
2023-05-19T13:45:58.829Z,19.28
2023-05-19T13:47:00.883Z,19.26
2023-05-19T13:48:03.028Z,19.24
2023-05-19T13:49:05.012Z,19.20